x

Big Carlos Pass, Fl (bgcf1) Weather Station

2:54pm - Wed 23rd Apr 2014 All times are EDT. -4 hours from GMT.

  • Wind
    10mph, 15mph gusts
  • Air Temp 76°f
  • Sea Pressure 1014.1mb
  • Big Carlos Pass, Fl
  • Big Carlos Pass, Fl

More Historic Weather Station data

Upgrade to MSW Pro to gain access to the past 30 days of data for over 8000 Wavebouys and Weather Stations around the globe.

Join Pro

Comparision Forecast

View Surf forecast
   
Wed 04/23 2:54pm 10 15 mph 1014.1mb 76f
2:48pm 10 15 mph 1014.1mb 76f
1:54pm 11 17 mph 1014.5mb 75f
1:48pm 10 16 mph 1014.5mb 76f
12:54pm 11 14 mph 1014.9mb 74f
12:48pm 9 13 mph 1015mb 75f
11:54am 11 14 mph 1015.5mb 73f
11:48am 10 14 mph 1015.5mb 74f
10:54am 8 13 mph 1015.6mb 74f
10:48am 8 11 mph 1015.6mb 74f
9:54am 10 13 mph 1015.3mb 72f
9:48am 10 14 mph 1015.3mb 72f
8:54am 8 13 mph 1015mb 71f
8:48am 8 13 mph 1015mb 71f
7:54am 9 13 mph 1014.6mb 70f
7:48am 8 10 mph 1014.5mb 70f
6:54am 5 7 mph 1013.8mb 69f
6:48am 5 6 mph 1013.7mb 69f
5:54am 5 8 mph 1013.2mb 70f
5:48am 5 6 mph 1013mb 70f
4:54am 5 7 mph 1012.8mb 70f
4:48am 5 7 mph 1012.8mb 70f
3:54am 5 7 mph 1012.9mb 70f
3:48am 5 6 mph 1012.9mb 70f
2:54am 5 6 mph 1013.3mb 69f
2:48am 5 7 mph 1013.4mb 70f
1:54am 3 6 mph 1013.5mb 70f
1:48am 5 8 mph 1013.5mb 70f
12:54am 3 6 mph 1013.7mb 70f
12:48am 3 6 mph 1013.8mb 70f
Tue 04/22 11:54pm 7 9 mph 1013.9mb 71f
11:48pm 6 9 mph 1013.9mb 71f
10:54pm 7 10 mph 1013.9mb 71f
10:48pm 8 11 mph 1013.9mb 71f
9:54pm 6 9 mph 1013.4mb 72f
9:48pm 7 9 mph 1013.4mb 72f
8:54pm 5 6 mph 1012.8mb 72f
8:48pm 6 8 mph 1012.8mb 72f
7:54pm 9 11 mph 1012.3mb 73f
7:48pm 9 13 mph 1012.3mb 73f
6:54pm 7 10 mph 1012.3mb 74f
6:48pm 6 9 mph 1012.3mb 75f
5:54pm 10 16 mph 1012.5mb 75f
5:48pm 9 15 mph 1012.6mb 75f
4:54pm 14 16 mph 1012.8mb 74f
4:48pm 11 16 mph 1012.8mb 74f
3:54pm 11 18 mph 1013.4mb 75f
3:48pm 13 17 mph 1013.4mb 75f
2:54pm 8 13 mph 1014.1mb 75f
2:48pm 10 14 mph 1014.3mb 74f
1:54pm 7 10 mph 1014.7mb 74f
1:48pm 7 9 mph 1014.8mb 74f
12:54pm 9 10 mph 1015.4mb 72f
12:48pm 8 10 mph 1015.4mb 72f
11:54am 7 9 mph 1015.6mb 72f
11:48am 8 10 mph 1015.6mb 72f
10:54am 6 7 mph 1015.6mb 72f
10:48am 3 6 mph 1015.6mb 73f
9:54am 3 5 mph 1015.3mb 71f
9:48am 5 6 mph 1015.4mb 70f
8:54am 7 9 mph 1015.6mb 68f
8:48am 8 9 mph 1015.5mb 68f
7:54am 8 9 mph 1014.8mb 66f
7:48am 7 8 mph 1014.6mb 65f
6:54am 7
mph
1014.2mb 64f
6:48am 7 8 mph 1014.2mb 64f
5:54am 6 7 mph 1013.9mb 64f
5:48am 6 7 mph 1013.9mb 64f
4:54am 8 9 mph 1014.1mb 64f
4:48am 8 10 mph 1014.1mb 64f
3:54am 7 9 mph 1014.3mb 65f
3:48am 9 11 mph 1014.3mb 66f
2:54am 11 13 mph 1014.4mb 67f
2:48am 11 15 mph 1014.4mb 67f
1:54am 10 13 mph 1015mb 67f
1:48am 10 11 mph 1015.1mb 67f
12:54am 10 11 mph 1015.8mb 67f
12:48am 9 11 mph 1015.8mb 67f
Mon 04/21 11:54pm 13 15 mph 1016.1mb 68f
11:48pm 11 14 mph 1016.1mb 68f
10:54pm 10 13 mph 1016mb 69f
10:48pm 10 13 mph 1015.9mb 69f
9:54pm 14 17 mph 1015.6mb 71f
9:48pm 14 16 mph 1015.6mb 71f
8:54pm 17 20 mph 1015mb 73f
8:48pm 15 17 mph 1015mb 73f
7:54pm 9 11 mph 1014.5mb 72f
7:48pm 9 13 mph 1014.5mb 72f
6:54pm 9 14 mph 1014.4mb 73f
6:48pm 11 18 mph 1014.4mb 73f
5:54pm 10 15 mph 1014.5mb 74f
5:48pm 11 17 mph 1014.5mb 74f
4:54pm 10 20 mph 1014.6mb 74f
4:48pm 13 17 mph 1014.7mb 73f
3:54pm 10 17 mph 1015.2mb 74f
3:48pm 13 21 mph 1015.4mb 73f
2:54pm 9 13 mph 1016.1mb 74f
2:48pm 9 13 mph 1016.1mb 74f
1:54pm 13 17 mph 1017mb 71f
1:48pm 11 16 mph 1017.1mb 71f
12:54pm 10 15 mph 1017.7mb 71f
12:48pm 9 14 mph 1017.7mb 71f
11:54am 8 11 mph 1018.2mb 70f
11:48am 8 13 mph 1018.3mb 69f
10:54am 7 11 mph 1018.7mb 68f
10:48am 9 11 mph 1018.6mb 68f
9:54am 9 13 mph 1018.7mb 67f
9:48am 11 13 mph 1018.6mb 66f
8:54am 11 15 mph 1018.4mb 65f
8:48am 11 14 mph 1018.3mb 65f
7:54am 9 11 mph 1018.3mb 64f
7:48am 10 13 mph 1018.2mb 64f
6:54am 9 10 mph 1017.7mb 63f
6:48am 9 14 mph 1017.7mb 63f
5:54am 9 11 mph 1017.4mb 62f
5:48am 9 10 mph 1017.4mb 62f
4:54am 9 10 mph 1017.2mb 63f
4:48am 8 10 mph 1017.2mb 63f
3:54am 9 11 mph 1017.4mb 63f
3:48am 9 11 mph 1017.3mb 63f
2:54am 10 14 mph 1017.4mb 65f
2:48am 10 14 mph 1017.5mb 65f
1:54am 9 13 mph 1017.9mb 66f
1:48am 10 13 mph 1017.8mb 66f
12:54am 10 11 mph 1017.9mb 68f
12:48am 10 13 mph 1017.9mb 68f
Sun 04/20 11:54pm 10 11 mph 1018mb 70f
11:48pm 10 11 mph 1018.1mb 70f
10:54pm 10 11 mph 1017.8mb 70f
10:48pm 9 11 mph 1017.9mb 70f
9:54pm 7 10 mph 1017.7mb 70f
9:48pm 8 14 mph 1017.7mb 70f
8:54pm 10 14 mph 1017.2mb 71f
8:48pm 8 11 mph 1017.2mb 71f
7:54pm 10 15 mph 1016.6mb 73f
7:48pm 8 14 mph 1016.6mb 73f